sensor_id;sensor_type;location;lat;lon;timestamp;temperature;humidity
29813;DHT22;16707;48.106;11.548;2023-01-08T00:01:12;0.60;99.90
29813;DHT22;16707;48.106;11.548;2023-01-08T00:03:39;0.70;99.90
29813;DHT22;16707;48.106;11.548;2023-01-08T00:06:09;0.70;99.90
29813;DHT22;16707;48.106;11.548;2023-01-08T00:08:44;0.70;99.90
29813;DHT22;16707;48.106;11.548;2023-01-08T00:11:13;0.80;99.90
29813;DHT22;16707;48.106;11.548;2023-01-08T00:13:41;0.80;99.90
29813;DHT22;16707;48.106;11.548;2023-01-08T00:16:09;0.90;99.90
29813;DHT22;16707;48.106;11.548;2023-01-08T00:18:36;0.90;99.90
29813;DHT22;16707;48.106;11.548;2023-01-08T00:21:04;0.90;99.90
29813;DHT22;16707;48.106;11.548;2023-01-08T00:23:34;0.90;99.90
29813;DHT22;16707;48.106;11.548;2023-01-08T00:26:03;1.00;99.90
29813;DHT22;16707;48.106;11.548;2023-01-08T00:28:32;0.90;99.90
29813;DHT22;16707;48.106;11.548;2023-01-08T00:31:02;0.90;99.90
29813;DHT22;16707;48.106;11.548;2023-01-08T00:33:31;0.90;99.90
29813;DHT22;16707;48.106;11.548;2023-01-08T00:35:58;1.00;99.90
29813;DHT22;16707;48.106;11.548;2023-01-08T00:38:31;1.00;99.90
29813;DHT22;16707;48.106;11.548;2023-01-08T00:40:58;1.10;99.90
29813;DHT22;16707;48.106;11.548;2023-01-08T00:43:25;0.90;99.90
29813;DHT22;16707;48.106;11.548;2023-01-08T00:45:54;0.80;99.90
29813;DHT22;16707;48.106;11.548;2023-01-08T00:48:29;0.80;99.90
29813;DHT22;16707;48.106;11.548;2023-01-08T00:51:01;0.70;99.90
29813;DHT22;16707;48.106;11.548;2023-01-08T00:53:35;0.70;99.90
29813;DHT22;16707;48.106;11.548;2023-01-08T00:56:05;0.80;99.90
29813;DHT22;16707;48.106;11.548;2023-01-08T00:58:39;0.70;99.90
29813;DHT22;16707;48.106;11.548;2023-01-08T01:01:11;0.70;99.90
29813;DHT22;16707;48.106;11.548;2023-01-08T01:03:42;0.70;99.90
29813;DHT22;16707;48.106;11.548;2023-01-08T01:06:13;0.70;99.90
29813;DHT22;16707;48.106;11.548;2023-01-08T01:08:40;0.60;99.90
29813;DHT22;16707;48.106;11.548;2023-01-08T01:11:14;0.60;99.90
29813;DHT22;16707;48.106;11.548;2023-01-08T01:13:42;0.70;99.90
29813;DHT22;16707;48.106;11.548;2023-01-08T01:16:11;0.50;99.90
29813;DHT22;16707;48.106;11.548;2023-01-08T01:18:38;0.40;99.90
29813;DHT22;16707;48.106;11.548;2023-01-08T01:21:12;0.30;99.90
29813;DHT22;16707;48.106;11.548;2023-01-08T01:23:45;0.30;99.90
29813;DHT22;16707;48.106;11.548;2023-01-08T01:26:15;0.30;99.90
29813;DHT22;16707;48.106;11.548;2023-01-08T01:28:46;0.30;99.90
29813;DHT22;16707;48.106;11.548;2023-01-08T01:31:16;0.50;99.90
29813;DHT22;16707;48.106;11.548;2023-01-08T01:33:43;0.30;99.90
29813;DHT22;16707;48.106;11.548;2023-01-08T01:36:13;0.30;99.90
29813;DHT22;16707;48.106;11.548;2023-01-08T01:38:47;0.40;99.90
29813;DHT22;16707;48.106;11.548;2023-01-08T01:41:20;0.30;99.90
29813;DHT22;16707;48.106;11.548;2023-01-08T01:43:52;0.30;99.90
29813;DHT22;16707;48.106;11.548;2023-01-08T01:46:25;0.40;99.90
29813;DHT22;16707;48.106;11.548;2023-01-08T01:48:57;0.30;99.90
29813;DHT22;16707;48.106;11.548;2023-01-08T01:51:32;0.20;99.90
29813;DHT22;16707;48.106;11.548;2023-01-08T01:54:03;0.20;99.90
29813;DHT22;16707;48.106;11.548;2023-01-08T01:56:36;0.10;99.90
29813;DHT22;16707;48.106;11.548;2023-01-08T01:59:06;0.00;99.90
29813;DHT22;16707;48.106;11.548;2023-01-08T02:01:35;0.00;99.90
29813;DHT22;16707;48.106;11.548;2023-01-08T02:04:07;0.00;99.90
29813;DHT22;16707;48.106;11.548;2023-01-08T02:06:37;-0.10;99.90
29813;DHT22;16707;48.106;11.548;2023-01-08T02:09:14;-0.10;99.90
29813;DHT22;16707;48.106;11.548;2023-01-08T02:11:48;-0.20;99.90
29813;DHT22;16707;48.106;11.548;2023-01-08T02:14:47;-0.20;99.90
29813;DHT22;16707;48.106;11.548;2023-01-08T02:17:23;-0.20;99.90
29813;DHT22;16707;48.106;11.548;2023-01-08T02:19:55;-0.20;99.90
29813;DHT22;16707;48.106;11.548;2023-01-08T02:22:34;-0.30;99.90
29813;DHT22;16707;48.106;11.548;2023-01-08T02:25:13;-0.30;99.90
29813;DHT22;16707;48.106;11.548;2023-01-08T02:27:53;-0.20;99.90
29813;DHT22;16707;48.106;11.548;2023-01-08T02:30:22;-0.10;99.90
29813;DHT22;16707;48.106;11.548;2023-01-08T02:32:53;-0.10;99.90
29813;DHT22;16707;48.106;11.548;2023-01-08T02:35:22;-0.20;99.90
29813;DHT22;16707;48.106;11.548;2023-01-08T02:37:51;-0.30;99.90
29813;DHT22;16707;48.106;11.548;2023-01-08T02:40:27;-0.30;99.90
29813;DHT22;16707;48.106;11.548;2023-01-08T02:43:05;-0.20;99.90
29813;DHT22;16707;48.106;11.548;2023-01-08T02:45:39;-0.20;99.90
29813;DHT22;16707;48.106;11.548;2023-01-08T02:48:18;-0.20;99.90
29813;DHT22;16707;48.106;11.548;2023-01-08T02:50:58;-0.30;99.90
29813;DHT22;16707;48.106;11.548;2023-01-08T02:53:28;-0.30;99.90
29813;DHT22;16707;48.106;11.548;2023-01-08T02:55:58;-0.30;99.90
29813;DHT22;16707;48.106;11.548;2023-01-08T02:58:29;-0.30;99.90
29813;DHT22;16707;48.106;11.548;2023-01-08T03:00:58;-0.30;99.90
29813;DHT22;16707;48.106;11.548;2023-01-08T03:03:37;-0.40;99.90
29813;DHT22;16707;48.106;11.548;2023-01-08T03:06:07;-0.50;99.90
29813;DHT22;16707;48.106;11.548;2023-01-08T03:08:38;-0.40;99.90
29813;DHT22;16707;48.106;11.548;2023-01-08T03:11:10;-0.40;99.90
29813;DHT22;16707;48.106;11.548;2023-01-08T03:13:42;-0.40;99.90
29813;DHT22;16707;48.106;11.548;2023-01-08T03:16:16;-0.30;99.90
29813;DHT22;16707;48.106;11.548;2023-01-08T03:18:49;-0.40;99.90
29813;DHT22;16707;48.106;11.548;2023-01-08T03:21:20;-0.40;99.90
29813;DHT22;16707;48.106;11.548;2023-01-08T03:23:50;-0.40;99.90
29813;DHT22;16707;48.106;11.548;2023-01-08T03:26:20;-0.30;99.90
29813;DHT22;16707;48.106;11.548;2023-01-08T03:28:52;-0.40;99.90
29813;DHT22;16707;48.106;11.548;2023-01-08T03:31:23;-0.40;99.90
29813;DHT22;16707;48.106;11.548;2023-01-08T03:33:54;-0.30;99.90
29813;DHT22;16707;48.106;11.548;2023-01-08T03:36:25;-0.30;99.90
29813;DHT22;16707;48.106;11.548;2023-01-08T03:38:57;-0.40;99.90
29813;DHT22;16707;48.106;11.548;2023-01-08T03:41:30;-0.40;99.90
29813;DHT22;16707;48.106;11.548;2023-01-08T03:43:59;-0.30;99.90
29813;DHT22;16707;48.106;11.548;2023-01-08T03:46:29;-0.40;99.90
29813;DHT22;16707;48.106;11.548;2023-01-08T03:49:00;-0.40;99.90
29813;DHT22;16707;48.106;11.548;2023-01-08T03:51:43;-0.40;99.90
29813;DHT22;16707;48.106;11.548;2023-01-08T03:54:13;-0.40;99.90
29813;DHT22;16707;48.106;11.548;2023-01-08T03:56:40;-0.40;99.90
29813;DHT22;16707;48.106;11.548;2023-01-08T03:59:13;-0.40;99.90
29813;DHT22;16707;48.106;11.548;2023-01-08T04:01:41;-0.40;99.90
29813;DHT22;16707;48.106;11.548;2023-01-08T04:04:10;-0.30;99.90
29813;DHT22;16707;48.106;11.548;2023-01-08T04:06:38;-0.30;99.90
29813;DHT22;16707;48.106;11.548;2023-01-08T04:09:06;-0.20;99.90
29813;DHT22;16707;48.106;11.548;2023-01-08T04:11:36;-0.20;99.90
29813;DHT22;16707;48.106;11.548;2023-01-08T04:14:04;-0.20;99.90
29813;DHT22;16707;48.106;11.548;2023-01-08T04:16:38;-0.30;99.90
29813;DHT22;16707;48.106;11.548;2023-01-08T04:19:17;-0.40;99.90
29813;DHT22;16707;48.106;11.548;2023-01-08T04:21:44;-0.20;99.90
29813;DHT22;16707;48.106;11.548;2023-01-08T04:24:12;-0.30;99.90
29813;DHT22;16707;48.106;11.548;2023-01-08T04:26:47;-0.40;99.90
29813;DHT22;16707;48.106;11.548;2023-01-08T04:29:16;-0.40;99.90
29813;DHT22;16707;48.106;11.548;2023-01-08T04:31:51;-0.40;99.90
29813;DHT22;16707;48.106;11.548;2023-01-08T04:34:18;-0.40;99.90
29813;DHT22;16707;48.106;11.548;2023-01-08T04:36:45;-0.40;99.90
29813;DHT22;16707;48.106;11.548;2023-01-08T04:39:12;-0.40;99.90
29813;DHT22;16707;48.106;11.548;2023-01-08T04:41:39;-0.40;99.90
29813;DHT22;16707;48.106;11.548;2023-01-08T04:44:14;-0.30;99.90
29813;DHT22;16707;48.106;11.548;2023-01-08T04:46:44;0.00;99.90
29813;DHT22;16707;48.106;11.548;2023-01-08T04:49:20;0.10;99.90
29813;DHT22;16707;48.106;11.548;2023-01-08T04:51:51;0.10;99.90
29813;DHT22;16707;48.106;11.548;2023-01-08T04:54:18;0.10;99.90
29813;DHT22;16707;48.106;11.548;2023-01-08T04:56:48;-0.10;99.90
29813;DHT22;16707;48.106;11.548;2023-01-08T04:59:18;-0.10;99.90
29813;DHT22;16707;48.106;11.548;2023-01-08T05:01:51;0.00;99.90
29813;DHT22;16707;48.106;11.548;2023-01-08T05:04:20;-0.10;99.90
29813;DHT22;16707;48.106;11.548;2023-01-08T05:06:49;0.00;99.90
29813;DHT22;16707;48.106;11.548;2023-01-08T05:09:19;-0.20;99.90
29813;DHT22;16707;48.106;11.548;2023-01-08T05:11:48;-0.10;99.90
29813;DHT22;16707;48.106;11.548;2023-01-08T05:14:16;0.00;99.90
29813;DHT22;16707;48.106;11.548;2023-01-08T05:16:43;0.10;99.90
29813;DHT22;16707;48.106;11.548;2023-01-08T05:19:11;0.20;99.90
29813;DHT22;16707;48.106;11.548;2023-01-08T05:21:41;0.20;99.90
29813;DHT22;16707;48.106;11.548;2023-01-08T05:24:08;0.20;99.90
29813;DHT22;16707;48.106;11.548;2023-01-08T05:26:36;0.20;99.90
29813;DHT22;16707;48.106;11.548;2023-01-08T05:29:03;0.00;99.90
29813;DHT22;16707;48.106;11.548;2023-01-08T05:31:30;-0.10;99.90
29813;DHT22;16707;48.106;11.548;2023-01-08T05:33:57;-0.10;99.90
29813;DHT22;16707;48.106;11.548;2023-01-08T05:36:25;-0.10;99.90
29813;DHT22;16707;48.106;11.548;2023-01-08T05:38:53;-0.20;99.90
29813;DHT22;16707;48.106;11.548;2023-01-08T05:41:24;-0.20;99.90
29813;DHT22;16707;48.106;11.548;2023-01-08T05:43:55;-0.20;99.90
29813;DHT22;16707;48.106;11.548;2023-01-08T05:46:24;-0.20;99.90
29813;DHT22;16707;48.106;11.548;2023-01-08T05:48:54;-0.20;99.90
29813;DHT22;16707;48.106;11.548;2023-01-08T05:51:41;-0.10;99.90
29813;DHT22;16707;48.106;11.548;2023-01-08T05:54:10;-0.10;99.90
29813;DHT22;16707;48.106;11.548;2023-01-08T05:56:39;-0.10;99.90
29813;DHT22;16707;48.106;11.548;2023-01-08T05:59:09;0.00;99.90
29813;DHT22;16707;48.106;11.548;2023-01-08T06:01:40;0.10;99.90
29813;DHT22;16707;48.106;11.548;2023-01-08T06:04:10;0.10;99.90
29813;DHT22;16707;48.106;11.548;2023-01-08T06:06:37;0.20;99.90
29813;DHT22;16707;48.106;11.548;2023-01-08T06:09:04;0.40;99.90
29813;DHT22;16707;48.106;11.548;2023-01-08T06:11:41;0.30;99.90
29813;DHT22;16707;48.106;11.548;2023-01-08T06:14:08;0.20;99.90
29813;DHT22;16707;48.106;11.548;2023-01-08T06:16:37;0.10;99.90
29813;DHT22;16707;48.106;11.548;2023-01-08T06:19:08;0.20;99.90
29813;DHT22;16707;48.106;11.548;2023-01-08T06:21:38;0.20;99.90
29813;DHT22;16707;48.106;11.548;2023-01-08T06:24:09;0.20;99.90
29813;DHT22;16707;48.106;11.548;2023-01-08T06:26:49;0.20;99.90
29813;DHT22;16707;48.106;11.548;2023-01-08T06:29:22;0.20;99.90
29813;DHT22;16707;48.106;11.548;2023-01-08T06:31:50;0.30;99.90
29813;DHT22;16707;48.106;11.548;2023-01-08T06:34:19;0.40;99.90
29813;DHT22;16707;48.106;11.548;2023-01-08T06:36:55;0.30;99.90
29813;DHT22;16707;48.106;11.548;2023-01-08T06:39:22;0.30;99.90
29813;DHT22;16707;48.106;11.548;2023-01-08T06:41:50;0.40;99.90
29813;DHT22;16707;48.106;11.548;2023-01-08T06:44:23;0.40;99.90
29813;DHT22;16707;48.106;11.548;2023-01-08T06:46:51;0.40;99.90
29813;DHT22;16707;48.106;11.548;2023-01-08T06:49:18;0.40;99.90
29813;DHT22;16707;48.106;11.548;2023-01-08T06:51:46;0.50;99.90
29813;DHT22;16707;48.106;11.548;2023-01-08T06:54:13;0.60;99.90
29813;DHT22;16707;48.106;11.548;2023-01-08T06:56:47;0.60;99.90
29813;DHT22;16707;48.106;11.548;2023-01-08T06:59:16;0.60;99.90
29813;DHT22;16707;48.106;11.548;2023-01-08T07:01:45;0.60;99.90
29813;DHT22;16707;48.106;11.548;2023-01-08T07:04:20;0.70;99.90
29813;DHT22;16707;48.106;11.548;2023-01-08T07:06:47;0.60;99.90
29813;DHT22;16707;48.106;11.548;2023-01-08T07:09:15;0.60;99.90
29813;DHT22;16707;48.106;11.548;2023-01-08T07:11:42;0.70;99.90
29813;DHT22;16707;48.106;11.548;2023-01-08T07:14:09;0.70;99.90
29813;DHT22;16707;48.106;11.548;2023-01-08T07:16:42;0.90;99.90
29813;DHT22;16707;48.106;11.548;2023-01-08T07:19:12;0.90;99.90
29813;DHT22;16707;48.106;11.548;2023-01-08T07:21:56;1.00;99.90
29813;DHT22;16707;48.106;11.548;2023-01-08T07:24:25;0.90;99.90
29813;DHT22;16707;48.106;11.548;2023-01-08T07:26:53;1.00;99.90
29813;DHT22;16707;48.106;11.548;2023-01-08T07:29:20;1.20;99.90
29813;DHT22;16707;48.106;11.548;2023-01-08T07:31:51;1.40;99.90
29813;DHT22;16707;48.106;11.548;2023-01-08T07:34:24;1.50;99.90
29813;DHT22;16707;48.106;11.548;2023-01-08T07:36:52;1.50;99.90
29813;DHT22;16707;48.106;11.548;2023-01-08T07:39:21;1.70;99.90
29813;DHT22;16707;48.106;11.548;2023-01-08T07:41:48;2.00;99.90
29813;DHT22;16707;48.106;11.548;2023-01-08T07:44:18;1.90;99.90
29813;DHT22;16707;48.106;11.548;2023-01-08T07:46:54;1.90;99.90
29813;DHT22;16707;48.106;11.548;2023-01-08T07:49:21;2.00;99.90
29813;DHT22;16707;48.106;11.548;2023-01-08T07:51:48;2.00;99.90
29813;DHT22;16707;48.106;11.548;2023-01-08T07:54:25;1.90;99.90
29813;DHT22;16707;48.106;11.548;2023-01-08T07:56:53;2.00;99.90
29813;DHT22;16707;48.106;11.548;2023-01-08T07:59:20;2.00;99.90
29813;DHT22;16707;48.106;11.548;2023-01-08T08:01:50;2.00;99.90
29813;DHT22;16707;48.106;11.548;2023-01-08T08:04:24;2.00;99.90
29813;DHT22;16707;48.106;11.548;2023-01-08T08:06:56;2.10;99.90
29813;DHT22;16707;48.106;11.548;2023-01-08T08:09:26;2.30;99.90
29813;DHT22;16707;48.106;11.548;2023-01-08T08:12:02;2.40;99.90
29813;DHT22;16707;48.106;11.548;2023-01-08T08:14:29;2.40;99.90
29813;DHT22;16707;48.106;11.548;2023-01-08T08:16:56;2.70;99.90
29813;DHT22;16707;48.106;11.548;2023-01-08T08:19:25;3.00;99.90
29813;DHT22;16707;48.106;11.548;2023-01-08T08:21:52;3.00;99.90
29813;DHT22;16707;48.106;11.548;2023-01-08T08:24:20;3.10;99.90
29813;DHT22;16707;48.106;11.548;2023-01-08T08:26:47;3.10;99.90
29813;DHT22;16707;48.106;11.548;2023-01-08T08:29:14;3.10;99.90
29813;DHT22;16707;48.106;11.548;2023-01-08T08:31:46;3.10;99.90
29813;DHT22;16707;48.106;11.548;2023-01-08T08:34:13;3.30;99.90
29813;DHT22;16707;48.106;11.548;2023-01-08T08:36:42;3.20;99.90
29813;DHT22;16707;48.106;11.548;2023-01-08T08:39:11;3.30;99.90
29813;DHT22;16707;48.106;11.548;2023-01-08T08:41:39;3.30;99.90
29813;DHT22;16707;48.106;11.548;2023-01-08T08:44:06;3.40;99.90
29813;DHT22;16707;48.106;11.548;2023-01-08T08:46:37;3.50;99.90
29813;DHT22;16707;48.106;11.548;2023-01-08T08:49:07;3.70;99.90
29813;DHT22;16707;48.106;11.548;2023-01-08T08:51:37;4.00;99.90
29813;DHT22;16707;48.106;11.548;2023-01-08T08:54:05;4.20;99.90
29813;DHT22;16707;48.106;11.548;2023-01-08T08:56:32;4.40;99.90
29813;DHT22;16707;48.106;11.548;2023-01-08T08:59:03;4.50;99.90
29813;DHT22;16707;48.106;11.548;2023-01-08T09:01:38;4.40;99.90
29813;DHT22;16707;48.106;11.548;2023-01-08T09:04:05;4.10;99.90
29813;DHT22;16707;48.106;11.548;2023-01-08T09:06:34;4.10;99.90
29813;DHT22;16707;48.106;11.548;2023-01-08T09:09:01;4.40;99.90
29813;DHT22;16707;48.106;11.548;2023-01-08T09:11:30;4.30;99.90
29813;DHT22;16707;48.106;11.548;2023-01-08T09:14:04;4.40;99.90
29813;DHT22;16707;48.106;11.548;2023-01-08T09:16:31;4.50;99.90
29813;DHT22;16707;48.106;11.548;2023-01-08T09:19:01;4.70;99.90
29813;DHT22;16707;48.106;11.548;2023-01-08T09:21:30;4.90;99.90
29813;DHT22;16707;48.106;11.548;2023-01-08T09:24:03;5.10;99.90
29813;DHT22;16707;48.106;11.548;2023-01-08T09:26:35;5.60;99.90
29813;DHT22;16707;48.106;11.548;2023-01-08T09:29:04;5.80;99.90
29813;DHT22;16707;48.106;11.548;2023-01-08T09:31:32;6.00;99.90
29813;DHT22;16707;48.106;11.548;2023-01-08T09:34:02;6.10;99.90
29813;DHT22;16707;48.106;11.548;2023-01-08T09:36:29;6.40;99.90
29813;DHT22;16707;48.106;11.548;2023-01-08T09:38:57;6.40;99.90
29813;DHT22;16707;48.106;11.548;2023-01-08T09:41:31;6.40;99.90
29813;DHT22;16707;48.106;11.548;2023-01-08T09:44:03;6.50;99.90
29813;DHT22;16707;48.106;11.548;2023-01-08T09:46:31;6.60;99.90
29813;DHT22;16707;48.106;11.548;2023-01-08T09:49:03;6.70;99.90
29813;DHT22;16707;48.106;11.548;2023-01-08T09:51:40;6.80;99.90
29813;DHT22;16707;48.106;11.548;2023-01-08T09:54:13;7.20;99.90
29813;DHT22;16707;48.106;11.548;2023-01-08T09:56:44;7.30;99.90
29813;DHT22;16707;48.106;11.548;2023-01-08T09:59:16;7.30;99.90
29813;DHT22;16707;48.106;11.548;2023-01-08T10:01:44;7.20;99.90
29813;DHT22;16707;48.106;11.548;2023-01-08T10:04:20;7.20;99.90
29813;DHT22;16707;48.106;11.548;2023-01-08T10:06:53;7.20;99.90
29813;DHT22;16707;48.106;11.548;2023-01-08T10:09:26;7.10;98.90
29813;DHT22;16707;48.106;11.548;2023-01-08T10:12:00;7.10;99.10
29813;DHT22;16707;48.106;11.548;2023-01-08T10:14:34;7.10;95.70
29813;DHT22;16707;48.106;11.548;2023-01-08T10:17:11;7.20;94.30
29813;DHT22;16707;48.106;11.548;2023-01-08T10:19:40;7.30;93.80
29813;DHT22;16707;48.106;11.548;2023-01-08T10:22:16;7.30;93.60
29813;DHT22;16707;48.106;11.548;2023-01-08T10:24:46;7.30;92.90
29813;DHT22;16707;48.106;11.548;2023-01-08T10:27:15;7.30;93.10
29813;DHT22;16707;48.106;11.548;2023-01-08T10:29:51;7.40;93.60
29813;DHT22;16707;48.106;11.548;2023-01-08T10:32:28;7.40;93.90
29813;DHT22;16707;48.106;11.548;2023-01-08T10:34:56;7.50;93.80
29813;DHT22;16707;48.106;11.548;2023-01-08T10:37:28;7.60;92.60
29813;DHT22;16707;48.106;11.548;2023-01-08T10:40:03;7.90;92.30
29813;DHT22;16707;48.106;11.548;2023-01-08T10:42:33;8.20;91.10
29813;DHT22;16707;48.106;11.548;2023-01-08T10:45:10;8.30;90.50
29813;DHT22;16707;48.106;11.548;2023-01-08T10:47:38;8.50;90.50
29813;DHT22;16707;48.106;11.548;2023-01-08T10:50:17;8.60;89.70
29813;DHT22;16707;48.106;11.548;2023-01-08T10:52:53;8.80;88.10
29813;DHT22;16707;48.106;11.548;2023-01-08T10:55:24;9.10;86.50
29813;DHT22;16707;48.106;11.548;2023-01-08T10:57:56;9.20;85.50
29813;DHT22;16707;48.106;11.548;2023-01-08T11:00:28;9.40;85.60
29813;DHT22;16707;48.106;11.548;2023-01-08T11:02:57;9.40;83.10
29813;DHT22;16707;48.106;11.548;2023-01-08T11:05:30;9.60;82.00
29813;DHT22;16707;48.106;11.548;2023-01-08T11:07:59;9.50;81.50
29813;DHT22;16707;48.106;11.548;2023-01-08T11:10:28;9.40;81.30
29813;DHT22;16707;48.106;11.548;2023-01-08T11:12:57;9.30;81.40
29813;DHT22;16707;48.106;11.548;2023-01-08T11:15:33;9.00;83.70
29813;DHT22;16707;48.106;11.548;2023-01-08T11:18:15;8.90;83.90
29813;DHT22;16707;48.106;11.548;2023-01-08T11:20:44;8.80;83.60
29813;DHT22;16707;48.106;11.548;2023-01-08T11:23:16;8.90;85.00
29813;DHT22;16707;48.106;11.548;2023-01-08T11:25:47;9.00;84.80
29813;DHT22;16707;48.106;11.548;2023-01-08T11:28:20;9.20;83.90
29813;DHT22;16707;48.106;11.548;2023-01-08T11:31:00;9.40;82.60
29813;DHT22;16707;48.106;11.548;2023-01-08T11:33:31;9.50;79.30
29813;DHT22;16707;48.106;11.548;2023-01-08T11:36:03;9.50;77.80
29813;DHT22;16707;48.106;11.548;2023-01-08T11:38:37;9.60;78.10
29813;DHT22;16707;48.106;11.548;2023-01-08T11:41:13;9.70;77.10
29813;DHT22;16707;48.106;11.548;2023-01-08T11:43:58;9.80;76.90
29813;DHT22;16707;48.106;11.548;2023-01-08T11:46:36;9.90;75.50
29813;DHT22;16707;48.106;11.548;2023-01-08T11:49:21;10.00;74.80
29813;DHT22;16707;48.106;11.548;2023-01-08T11:52:01;10.10;74.40
29813;DHT22;16707;48.106;11.548;2023-01-08T11:54:48;10.10;74.80
29813;DHT22;16707;48.106;11.548;2023-01-08T11:57:17;10.30;75.70
29813;DHT22;16707;48.106;11.548;2023-01-08T12:00:02;10.30;73.70
29813;DHT22;16707;48.106;11.548;2023-01-08T12:02:50;10.40;74.70
29813;DHT22;16707;48.106;11.548;2023-01-08T12:05:24;10.60;73.50
29813;DHT22;16707;48.106;11.548;2023-01-08T12:08:00;10.60;73.80
29813;DHT22;16707;48.106;11.548;2023-01-08T12:10:36;10.40;74.50
29813;DHT22;16707;48.106;11.548;2023-01-08T12:13:20;10.50;74.70
29813;DHT22;16707;48.106;11.548;2023-01-08T12:16:01;10.50;74.50
29813;DHT22;16707;48.106;11.548;2023-01-08T12:18:48;10.30;74.80
29813;DHT22;16707;48.106;11.548;2023-01-08T12:21:28;10.10;75.00
29813;DHT22;16707;48.106;11.548;2023-01-08T12:24:10;10.20;75.00
29813;DHT22;16707;48.106;11.548;2023-01-08T12:26:45;10.30;74.60
29813;DHT22;16707;48.106;11.548;2023-01-08T12:29:41;10.30;74.30
29813;DHT22;16707;48.106;11.548;2023-01-08T12:32:23;10.20;75.00
29813;DHT22;16707;48.106;11.548;2023-01-08T12:35:00;10.20;75.90
29813;DHT22;16707;48.106;11.548;2023-01-08T12:37:34;10.10;75.40
29813;DHT22;16707;48.106;11.548;2023-01-08T12:40:13;10.10;74.40
29813;DHT22;16707;48.106;11.548;2023-01-08T12:42:44;10.10;74.30
29813;DHT22;16707;48.106;11.548;2023-01-08T12:45:16;10.00;75.50
29813;DHT22;16707;48.106;11.548;2023-01-08T12:47:51;10.10;74.80
29813;DHT22;16707;48.106;11.548;2023-01-08T12:50:45;10.10;73.90
29813;DHT22;16707;48.106;11.548;2023-01-08T12:53:21;10.10;74.30
29813;DHT22;16707;48.106;11.548;2023-01-08T12:55:58;10.00;74.80
29813;DHT22;16707;48.106;11.548;2023-01-08T12:58:47;9.90;75.60
29813;DHT22;16707;48.106;11.548;2023-01-08T13:01:28;9.80;77.10
29813;DHT22;16707;48.106;11.548;2023-01-08T13:03:58;9.90;76.60
29813;DHT22;16707;48.106;11.548;2023-01-08T13:06:32;9.90;76.40
29813;DHT22;16707;48.106;11.548;2023-01-08T13:09:03;9.90;76.10
29813;DHT22;16707;48.106;11.548;2023-01-08T13:11:34;9.80;76.10
29813;DHT22;16707;48.106;11.548;2023-01-08T13:14:08;9.80;76.80
29813;DHT22;16707;48.106;11.548;2023-01-08T13:16:37;9.60;76.90
29813;DHT22;16707;48.106;11.548;2023-01-08T13:19:25;9.60;76.40
29813;DHT22;16707;48.106;11.548;2023-01-08T13:21:54;9.60;77.10
29813;DHT22;16707;48.106;11.548;2023-01-08T13:24:29;9.50;77.00
29813;DHT22;16707;48.106;11.548;2023-01-08T13:27:10;9.50;78.20
29813;DHT22;16707;48.106;11.548;2023-01-08T13:29:41;9.50;78.90
29813;DHT22;16707;48.106;11.548;2023-01-08T13:32:33;9.40;80.30
29813;DHT22;16707;48.106;11.548;2023-01-08T13:35:19;9.30;78.00
29813;DHT22;16707;48.106;11.548;2023-01-08T13:37:49;9.30;79.30
29813;DHT22;16707;48.106;11.548;2023-01-08T13:40:53;9.30;79.30
29813;DHT22;16707;48.106;11.548;2023-01-08T13:43:25;9.10;82.10
29813;DHT22;16707;48.106;11.548;2023-01-08T13:46:04;9.20;82.00
29813;DHT22;16707;48.106;11.548;2023-01-08T13:48:36;9.10;82.70
29813;DHT22;16707;48.106;11.548;2023-01-08T13:51:16;9.10;81.10
29813;DHT22;16707;48.106;11.548;2023-01-08T13:53:57;9.00;82.40
29813;DHT22;16707;48.106;11.548;2023-01-08T13:56:32;8.90;84.10
29813;DHT22;16707;48.106;11.548;2023-01-08T13:59:03;9.00;83.70
29813;DHT22;16707;48.106;11.548;2023-01-08T14:01:31;9.00;83.10
29813;DHT22;16707;48.106;11.548;2023-01-08T14:03:58;9.00;84.10
29813;DHT22;16707;48.106;11.548;2023-01-08T14:06:26;9.00;85.00
29813;DHT22;16707;48.106;11.548;2023-01-08T14:09:01;8.90;83.60
29813;DHT22;16707;48.106;11.548;2023-01-08T14:11:30;8.90;85.30
29813;DHT22;16707;48.106;11.548;2023-01-08T14:14:02;8.80;86.10
29813;DHT22;16707;48.106;11.548;2023-01-08T14:16:30;8.80;85.50
29813;DHT22;16707;48.106;11.548;2023-01-08T14:19:00;8.70;85.10
29813;DHT22;16707;48.106;11.548;2023-01-08T14:21:38;8.80;86.40
29813;DHT22;16707;48.106;11.548;2023-01-08T14:24:18;8.80;88.40
29813;DHT22;16707;48.106;11.548;2023-01-08T14:26:50;8.80;85.50
29813;DHT22;16707;48.106;11.548;2023-01-08T14:29:21;8.90;84.90
29813;DHT22;16707;48.106;11.548;2023-01-08T14:31:50;8.80;86.00
29813;DHT22;16707;48.106;11.548;2023-01-08T14:34:18;8.90;86.40
29813;DHT22;16707;48.106;11.548;2023-01-08T14:36:48;8.80;85.60
29813;DHT22;16707;48.106;11.548;2023-01-08T14:39:22;9.00;85.90
29813;DHT22;16707;48.106;11.548;2023-01-08T14:41:50;9.00;88.20
29813;DHT22;16707;48.106;11.548;2023-01-08T14:44:37;8.80;88.20
29813;DHT22;16707;48.106;11.548;2023-01-08T14:47:16;8.80;90.00
29813;DHT22;16707;48.106;11.548;2023-01-08T14:49:48;8.80;89.30
29813;DHT22;16707;48.106;11.548;2023-01-08T14:52:22;8.80;90.30
29813;DHT22;16707;48.106;11.548;2023-01-08T14:54:57;8.80;90.20
29813;DHT22;16707;48.106;11.548;2023-01-08T14:57:26;8.80;86.30
29813;DHT22;16707;48.106;11.548;2023-01-08T14:59:57;8.90;86.90
29813;DHT22;16707;48.106;11.548;2023-01-08T15:02:27;8.90;88.70
29813;DHT22;16707;48.106;11.548;2023-01-08T15:05:12;8.70;90.10
29813;DHT22;16707;48.106;11.548;2023-01-08T15:07:41;8.70;90.60
29813;DHT22;16707;48.106;11.548;2023-01-08T15:10:37;8.80;88.10
29813;DHT22;16707;48.106;11.548;2023-01-08T15:13:21;8.80;90.60
29813;DHT22;16707;48.106;11.548;2023-01-08T15:15:54;8.80;90.40
29813;DHT22;16707;48.106;11.548;2023-01-08T15:18:22;9.00;90.40
29813;DHT22;16707;48.106;11.548;2023-01-08T15:20:51;9.00;90.00
29813;DHT22;16707;48.106;11.548;2023-01-08T15:23:31;8.70;87.80
29813;DHT22;16707;48.106;11.548;2023-01-08T15:26:01;8.70;88.80
29813;DHT22;16707;48.106;11.548;2023-01-08T15:28:29;8.80;87.90
29813;DHT22;16707;48.106;11.548;2023-01-08T15:30:57;8.50;89.60
29813;DHT22;16707;48.106;11.548;2023-01-08T15:33:24;8.30;90.40
29813;DHT22;16707;48.106;11.548;2023-01-08T15:35:53;8.20;90.60
29813;DHT22;16707;48.106;11.548;2023-01-08T15:38:20;8.20;91.40
29813;DHT22;16707;48.106;11.548;2023-01-08T15:40:49;8.10;92.10
29813;DHT22;16707;48.106;11.548;2023-01-08T15:43:19;8.00;92.50
29813;DHT22;16707;48.106;11.548;2023-01-08T15:45:48;8.00;92.10
29813;DHT22;16707;48.106;11.548;2023-01-08T15:48:15;7.90;92.40
29813;DHT22;16707;48.106;11.548;2023-01-08T15:50:43;8.00;91.80
29813;DHT22;16707;48.106;11.548;2023-01-08T15:53:15;8.00;92.30
29813;DHT22;16707;48.106;11.548;2023-01-08T15:55:42;8.10;92.10
29813;DHT22;16707;48.106;11.548;2023-01-08T15:58:11;7.80;92.10